Time;durP1;ratioP1;P1;durP2;ratioP2;P2;SDS_P1;SDS_P2;PMS_P1;PMS_P2;Temp;Humidity;BMP_temperature;BMP_pressure;BME280_temperature;BME280_humidity;BME280_pressure;Samples;Min_cycle;Max_cycle;Signal;HPM_P1;HPM_P2
2022/03/08 00:02:06;;;;;;;9.47;4.73;;;2.30;99.90;;;;;;5039430;28;20218;-75
2022/03/08 00:04:55;;;;;;;11.17;4.60;;;2.20;99.90;;;;;;5025451;28;20617;-74
2022/03/08 00:07:45;;;;;;;11.03;4.90;;;2.30;99.90;;;;;;5031337;28;20228;-76
2022/03/08 00:10:34;;;;;;;10.20;5.10;;;2.30;99.90;;;;;;5040459;28;20228;-73
2022/03/08 00:13:24;;;;;;;12.03;4.90;;;2.30;99.90;;;;;;5039952;28;20658;-77
2022/03/08 00:16:12;;;;;;;9.83;4.53;;;2.30;99.90;;;;;;5037478;28;20223;-77
2022/03/08 00:19:01;;;;;;;11.47;5.03;;;2.10;99.90;;;;;;5038480;28;20216;-76
2022/03/08 00:21:49;;;;;;;13.03;4.77;;;2.10;99.90;;;;;;5038316;28;20251;-76
2022/03/08 00:24:38;;;;;;;14.33;5.33;;;2.00;99.90;;;;;;5035340;28;20228;-75
2022/03/08 00:27:27;;;;;;;15.20;5.07;;;2.00;99.90;;;;;;5038134;28;20221;-76
2022/03/08 00:30:19;;;;;;;9.20;4.80;;;2.00;99.90;;;;;;5038466;28;20228;-77
2022/03/08 00:33:08;;;;;;;11.93;5.07;;;1.90;99.90;;;;;;5050157;28;20227;-77
2022/03/08 00:35:58;;;;;;;11.83;4.70;;;1.90;99.90;;;;;;5036827;28;20217;-77
2022/03/08 00:38:47;;;;;;;11.10;4.80;;;2.00;99.90;;;;;;5035005;28;20225;-78
2022/03/08 00:41:37;;;;;;;10.33;5.20;;;1.90;99.90;;;;;;5036490;28;20616;-77
2022/03/08 00:44:26;;;;;;;10.30;4.80;;;1.80;99.90;;;;;;5035875;28;20225;-77
2022/03/08 00:47:16;;;;;;;12.23;4.70;;;2.00;99.90;;;;;;5042209;28;20219;-79
2022/03/08 00:50:07;;;;;;;9.87;4.77;;;1.80;99.90;;;;;;5033029;28;20213;-78
2022/03/08 00:52:57;;;;;;;12.73;4.50;;;1.70;99.90;;;;;;5041177;28;20228;-78
2022/03/08 00:55:46;;;;;;;11.63;4.30;;;1.80;99.90;;;;;;5038063;28;20293;-79
2022/03/08 00:58:36;;;;;;;9.57;4.60;;;1.60;99.90;;;;;;5036923;28;20235;-79
2022/03/08 01:01:25;;;;;;;10.97;4.70;;;1.70;99.90;;;;;;5038184;28;20408;-79
2022/03/08 01:04:15;;;;;;;12.23;4.60;;;1.80;99.90;;;;;;5038034;28;20248;-79
2022/03/08 01:07:06;;;;;;;13.47;4.90;;;1.70;99.90;;;;;;5037707;28;20229;-78
2022/03/08 01:09:56;;;;;;;8.10;4.50;;;1.60;99.90;;;;;;5039303;28;20233;-78
2022/03/08 01:12:46;;;;;;;9.13;4.93;;;1.60;99.90;;;;;;5039172;28;20273;-79
2022/03/08 01:15:40;;;;;;;11.57;4.87;;;1.60;99.90;;;;;;5038900;28;20225;-79
2022/03/08 01:18:30;;;;;;;11.03;5.10;;;1.50;99.90;;;;;;5039024;28;20699;-78
2022/03/08 01:21:20;;;;;;;14.43;4.83;;;1.70;99.90;;;;;;5044494;28;20599;-79
2022/03/08 01:24:08;;;;;;;9.90;4.80;;;1.60;99.90;;;;;;5036181;28;20229;-77
2022/03/08 01:26:57;;;;;;;8.83;4.30;;;1.70;99.90;;;;;;5031484;28;20707;-78
2022/03/08 01:29:46;;;;;;;10.23;4.77;;;1.60;99.90;;;;;;5037805;28;20222;-78
2022/03/08 01:32:34;;;;;;;13.07;5.73;;;1.50;99.90;;;;;;5034119;28;20227;-78
2022/03/08 01:35:23;;;;;;;11.80;5.20;;;1.40;99.90;;;;;;5035679;28;20223;-79
2022/03/08 01:38:14;;;;;;;10.43;5.03;;;1.50;99.90;;;;;;5039550;28;20583;-78
2022/03/08 01:41:03;;;;;;;9.77;4.97;;;1.60;99.90;;;;;;5035108;28;20237;-80
2022/03/08 01:43:52;;;;;;;14.63;5.50;;;1.60;99.90;;;;;;5040592;28;20227;-80
2022/03/08 01:46:41;;;;;;;10.57;5.03;;;1.70;99.90;;;;;;5038393;28;20300;-79
2022/03/08 01:49:31;;;;;;;12.43;5.47;;;1.70;99.90;;;;;;5041710;28;20232;-78
2022/03/08 01:52:23;;;;;;;13.80;5.47;;;1.70;99.90;;;;;;5037950;28;20687;-78
2022/03/08 01:55:15;;;;;;;12.27;5.57;;;1.70;99.90;;;;;;5036732;28;20320;-78
2022/03/08 01:58:03;;;;;;;13.93;6.30;;;1.70;99.90;;;;;;5035364;28;20228;-78
2022/03/08 02:00:52;;;;;;;12.07;6.10;;;1.70;99.90;;;;;;5037510;28;20739;-77
2022/03/08 02:03:41;;;;;;;10.97;5.53;;;1.60;99.90;;;;;;5036598;28;20233;-76
2022/03/08 02:06:30;;;;;;;15.63;6.70;;;1.60;99.90;;;;;;5040695;28;20228;-76
2022/03/08 02:09:18;;;;;;;13.37;6.57;;;1.60;99.90;;;;;;5038705;28;20247;-77
2022/03/08 02:12:14;;;;;;;13.13;6.50;;;1.60;99.90;;;;;;5038901;28;20228;-80
2022/03/08 02:15:12;;;;;;;10.37;6.10;;;1.60;99.90;;;;;;5041728;28;20253;-73
2022/03/08 02:18:02;;;;;;;15.73;6.80;;;1.60;99.90;;;;;;5049497;28;20235;-76
2022/03/08 02:20:51;;;;;;;17.00;7.03;;;1.50;99.90;;;;;;5044829;28;20622;-78
2022/03/08 02:23:45;;;;;;;14.63;7.00;;;1.50;99.90;;;;;;5041883;28;20217;-77
2022/03/08 02:26:33;;;;;;;12.53;6.50;;;1.60;99.90;;;;;;5043220;28;20229;-78
2022/03/08 02:29:22;;;;;;;14.83;7.13;;;1.60;99.90;;;;;;5043552;28;20229;-78
2022/03/08 02:32:11;;;;;;;19.63;7.23;;;1.60;99.90;;;;;;5036963;28;20209;-80
2022/03/08 02:35:06;;;;;;;13.60;7.27;;;1.70;99.90;;;;;;5042245;28;20224;-79
2022/03/08 02:38:00;;;;;;;14.97;8.00;;;1.70;99.90;;;;;;5043528;28;20225;-79
2022/03/08 02:40:53;;;;;;;18.30;7.53;;;1.70;99.90;;;;;;5039274;28;20233;-78
2022/03/08 02:43:42;;;;;;;12.60;7.50;;;1.50;99.90;;;;;;5037546;28;20233;-78
2022/03/08 02:46:30;;;;;;;14.70;7.77;;;1.50;99.90;;;;;;5041128;28;20224;-79
2022/03/08 02:49:20;;;;;;;17.97;7.73;;;1.50;99.90;;;;;;5037310;28;20221;-78
2022/03/08 02:52:08;;;;;;;19.03;8.00;;;1.60;99.90;;;;;;5033222;28;20220;-78
2022/03/08 02:54:57;;;;;;;14.07;7.50;;;1.60;99.90;;;;;;5041474;28;20225;-77
2022/03/08 02:57:47;;;;;;;16.23;8.10;;;1.60;99.90;;;;;;5036482;28;20591;-76
2022/03/08 03:00:37;;;;;;;16.43;7.93;;;1.50;99.90;;;;;;5029613;28;20213;-75
2022/03/08 03:03:25;;;;;;;12.17;7.27;;;1.50;99.90;;;;;;5020630;28;20216;-77
2022/03/08 03:06:14;;;;;;;18.97;8.37;;;1.30;99.90;;;;;;5038654;28;20305;-78
2022/03/08 03:09:03;;;;;;;15.83;8.57;;;1.30;99.90;;;;;;5038824;28;20880;-78
2022/03/08 03:11:52;;;;;;;16.60;8.70;;;1.30;99.90;;;;;;5027420;28;20458;-77
2022/03/08 03:14:42;;;;;;;16.60;7.97;;;1.40;99.90;;;;;;5024811;28;20236;-77
2022/03/08 03:17:31;;;;;;;16.50;8.87;;;1.40;99.90;;;;;;5032365;28;20221;-77
2022/03/08 03:20:21;;;;;;;17.00;9.00;;;1.40;99.90;;;;;;5040226;28;20258;-78
2022/03/08 03:23:10;;;;;;;16.87;8.53;;;1.30;99.90;;;;;;5027865;28;20320;-75
2022/03/08 03:25:59;;;;;;;17.37;8.23;;;1.40;99.90;;;;;;5042135;28;20221;-77
2022/03/08 03:28:48;;;;;;;14.77;8.80;;;1.40;99.90;;;;;;5041873;28;20705;-77
2022/03/08 03:31:38;;;;;;;13.23;8.00;;;1.30;99.90;;;;;;5042101;28;20217;-78
2022/03/08 03:34:27;;;;;;;11.93;7.40;;;1.30;99.90;;;;;;5039297;28;20232;-78
2022/03/08 03:37:15;;;;;;;16.17;8.50;;;1.40;99.90;;;;;;5025125;28;20225;-78
2022/03/08 03:40:05;;;;;;;12.20;7.47;;;1.40;99.90;;;;;;5026224;28;20220;-78
2022/03/08 03:42:53;;;;;;;17.83;8.20;;;1.30;99.90;;;;;;5038232;28;20801;-76
2022/03/08 03:45:42;;;;;;;14.13;8.80;;;1.40;99.90;;;;;;5045905;28;20216;-75
2022/03/08 03:48:34;;;;;;;14.40;8.47;;;1.20;99.90;;;;;;5026895;28;20225;-78
2022/03/08 03:51:22;;;;;;;17.23;8.63;;;1.20;99.90;;;;;;5040312;28;20220;-76
2022/03/08 03:54:11;;;;;;;17.47;9.10;;;1.20;99.90;;;;;;5024878;28;20544;-77
2022/03/08 03:56:59;;;;;;;15.93;8.80;;;1.20;99.90;;;;;;5036371;28;20235;-77
2022/03/08 03:59:48;;;;;;;16.33;8.83;;;1.20;99.90;;;;;;5026973;28;20611;-77
2022/03/08 04:02:37;;;;;;;14.70;8.57;;;1.10;99.90;;;;;;5037973;28;20252;-78
2022/03/08 04:05:27;;;;;;;13.57;8.53;;;1.10;99.90;;;;;;5038455;28;20243;-76
2022/03/08 04:08:20;;;;;;;14.13;8.47;;;1.10;99.90;;;;;;5037443;28;20235;-76
2022/03/08 04:11:08;;;;;;;17.43;9.27;;;1.20;99.90;;;;;;5033930;28;20338;-76
2022/03/08 04:13:57;;;;;;;16.43;9.00;;;1.20;99.90;;;;;;5026826;28;20256;-76
2022/03/08 04:16:46;;;;;;;19.20;10.03;;;1.10;99.90;;;;;;5036375;28;20229;-76
2022/03/08 04:19:35;;;;;;;15.30;9.87;;;1.20;99.90;;;;;;5040943;28;20585;-76
2022/03/08 04:22:24;;;;;;;17.07;10.50;;;1.20;99.90;;;;;;5025009;28;20233;-79
2022/03/08 04:25:18;;;;;;;18.97;10.33;;;1.10;99.90;;;;;;5022659;28;20217;-75
2022/03/08 04:28:07;;;;;;;19.80;11.30;;;1.00;99.90;;;;;;5045624;28;20220;-76
2022/03/08 04:30:56;;;;;;;19.30;11.63;;;0.90;99.90;;;;;;5026947;28;20222;-77
2022/03/08 04:33:45;;;;;;;17.40;10.73;;;1.00;99.90;;;;;;5038009;28;20236;-77
2022/03/08 04:36:34;;;;;;;16.90;10.90;;;1.00;99.90;;;;;;5038083;28;20213;-76
2022/03/08 04:39:24;;;;;;;23.30;11.37;;;0.80;99.90;;;;;;5040885;28;20678;-75
2022/03/08 04:42:12;;;;;;;18.33;11.30;;;0.90;99.90;;;;;;5042906;28;20228;-76
2022/03/08 04:45:01;;;;;;;21.90;11.80;;;1.00;99.90;;;;;;5038895;28;20225;-76
2022/03/08 04:47:50;;;;;;;21.30;11.63;;;0.90;99.90;;;;;;5040365;28;20220;-79
2022/03/08 04:50:41;;;;;;;19.60;11.70;;;0.90;99.90;;;;;;5036705;28;20319;-78
2022/03/08 04:53:30;;;;;;;20.67;11.60;;;0.90;99.90;;;;;;5022245;28;20225;-76
2022/03/08 04:56:20;;;;;;;18.93;12.13;;;1.00;99.90;;;;;;5023183;28;20241;-71
2022/03/08 04:59:09;;;;;;;19.93;11.87;;;1.00;99.90;;;;;;5021224;28;20234;-72
2022/03/08 05:01:58;;;;;;;22.93;12.00;;;1.00;99.90;;;;;;5038462;28;20227;-71
2022/03/08 05:04:47;;;;;;;22.80;11.80;;;0.90;99.90;;;;;;5022117;28;20287;-71
2022/03/08 05:07:36;;;;;;;23.20;12.50;;;1.00;99.90;;;;;;5037828;28;20347;-71
2022/03/08 05:10:24;;;;;;;25.90;13.17;;;1.00;99.90;;;;;;5025419;28;20235;-71
2022/03/08 05:13:14;;;;;;;22.07;13.13;;;0.90;99.90;;;;;;5026374;28;20260;-70
2022/03/08 05:16:03;;;;;;;22.07;12.63;;;1.00;99.90;;;;;;5034998;28;20220;-71
2022/03/08 05:18:53;;;;;;;24.63;12.77;;;1.00;99.90;;;;;;5037576;28;21205;-70
2022/03/08 05:21:41;;;;;;;23.20;13.60;;;1.00;99.90;;;;;;5022290;28;21020;-71
2022/03/08 05:24:30;;;;;;;22.60;13.67;;;1.00;99.90;;;;;;5037476;28;20335;-71
2022/03/08 05:27:19;;;;;;;24.80;12.40;;;0.90;99.90;;;;;;5038978;28;21010;-70
2022/03/08 05:30:12;;;;;;;24.60;13.53;;;0.90;99.90;;;;;;5033971;28;20648;-72
2022/03/08 05:33:00;;;;;;;24.53;13.73;;;0.90;99.90;;;;;;5037998;28;20585;-72
2022/03/08 05:35:50;;;;;;;26.80;14.17;;;0.90;99.90;;;;;;5024345;28;20216;-71
2022/03/08 05:38:39;;;;;;;26.60;14.43;;;0.90;99.90;;;;;;5038727;28;20363;-71
2022/03/08 05:41:27;;;;;;;28.57;14.80;;;0.90;99.90;;;;;;5020500;28;20235;-70
2022/03/08 05:44:16;;;;;;;26.27;15.47;;;1.10;99.90;;;;;;5023543;28;20312;-70
2022/03/08 05:47:07;;;;;;;26.93;16.50;;;1.00;99.90;;;;;;5020632;28;20228;-71
2022/03/08 05:49:59;;;;;;;30.10;16.37;;;1.10;99.90;;;;;;5023263;28;20770;-71
2022/03/08 05:52:48;;;;;;;27.43;15.97;;;1.10;99.90;;;;;;5022919;28;20263;-71
2022/03/08 05:55:37;;;;;;;28.23;16.73;;;1.20;99.90;;;;;;5009390;28;20738;-72
2022/03/08 05:58:25;;;;;;;30.40;17.37;;;1.20;99.90;;;;;;5007378;28;20228;-71
2022/03/08 06:01:14;;;;;;;29.17;16.93;;;1.20;99.90;;;;;;5009950;28;20231;-72
2022/03/08 06:04:05;;;;;;;35.17;19.10;;;1.20;99.90;;;;;;5006049;28;20245;-71
2022/03/08 06:06:54;;;;;;;42.87;22.27;;;0.90;99.90;;;;;;5004014;28;20217;-71
2022/03/08 06:09:43;;;;;;;47.60;25.03;;;0.60;99.90;;;;;;5023761;28;21217;-71
2022/03/08 06:12:31;;;;;;;42.60;22.60;;;0.60;99.90;;;;;;5019620;28;20589;-72
2022/03/08 06:15:20;;;;;;;42.20;24.47;;;0.40;99.90;;;;;;5007672;28;20231;-71
2022/03/08 06:18:08;;;;;;;47.27;23.83;;;0.50;99.90;;;;;;5007152;28;20228;-72
2022/03/08 06:20:58;;;;;;;41.13;21.27;;;0.40;99.90;;;;;;5018628;28;20217;-70
2022/03/08 06:23:47;;;;;;;47.27;23.43;;;0.40;99.90;;;;;;5004306;28;20242;-70
2022/03/08 06:26:36;;;;;;;44.10;22.50;;;0.20;99.90;;;;;;5020738;28;20261;-71
2022/03/08 06:29:24;;;;;;;39.10;18.17;;;0.50;99.90;;;;;;5016820;28;20714;-71
2022/03/08 06:32:13;;;;;;;32.10;16.53;;;0.30;99.90;;;;;;5003808;28;20228;-71
2022/03/08 06:35:02;;;;;;;34.10;17.83;;;0.10;99.90;;;;;;5010336;28;21165;-72
2022/03/08 06:37:51;;;;;;;31.63;16.60;;;0.40;99.90;;;;;;5022506;28;20226;-72
2022/03/08 06:40:40;;;;;;;27.77;15.67;;;0.30;99.90;;;;;;5021519;28;20232;-72
2022/03/08 06:43:29;;;;;;;27.77;16.00;;;0.40;99.90;;;;;;5017795;28;20266;-72
2022/03/08 06:46:18;;;;;;;29.13;17.17;;;0.30;99.90;;;;;;5007912;28;20745;-72
2022/03/08 06:49:06;;;;;;;26.17;13.97;;;0.30;99.90;;;;;;5011226;28;20230;-72
2022/03/08 06:51:55;;;;;;;25.57;13.97;;;0.20;99.90;;;;;;5005623;28;20736;-72
2022/03/08 06:54:45;;;;;;;23.20;14.73;;;0.20;99.90;;;;;;5019445;28;20224;-72
2022/03/08 06:57:34;;;;;;;25.93;15.60;;;0.30;99.90;;;;;;4997380;28;20235;-71
2022/03/08 07:00:23;;;;;;;26.40;14.93;;;0.50;99.90;;;;;;5020807;28;20342;-71
2022/03/08 07:03:11;;;;;;;26.70;14.37;;;0.70;99.90;;;;;;5001322;28;20217;-72
2022/03/08 07:06:00;;;;;;;20.97;14.23;;;0.80;99.90;;;;;;5000819;28;20221;-71
2022/03/08 07:08:50;;;;;;;26.07;15.43;;;0.80;99.90;;;;;;5019529;28;20235;-71
2022/03/08 07:11:41;;;;;;;31.50;17.70;;;0.80;99.90;;;;;;5019210;28;20229;-73
2022/03/08 07:14:33;;;;;;;31.97;19.40;;;0.60;99.90;;;;;;5013892;28;20218;-71
2022/03/08 07:17:22;;;;;;;34.07;18.70;;;0.70;99.90;;;;;;5018643;28;20951;-71
2022/03/08 07:20:12;;;;;;;34.10;20.10;;;0.70;99.90;;;;;;5003428;28;20309;-73
2022/03/08 07:23:01;;;;;;;29.50;18.70;;;0.50;99.90;;;;;;5016769;28;20221;-73
2022/03/08 07:25:50;;;;;;;23.83;14.97;;;0.60;99.90;;;;;;5013166;28;20229;-72
2022/03/08 07:28:40;;;;;;;25.27;16.60;;;0.50;99.90;;;;;;5001792;28;20226;-72
2022/03/08 07:31:29;;;;;;;27.53;16.83;;;0.70;99.90;;;;;;5000979;28;20232;-73
2022/03/08 07:34:18;;;;;;;37.73;21.37;;;0.80;99.90;;;;;;4998336;28;20222;-74
2022/03/08 07:37:07;;;;;;;35.20;21.80;;;0.60;99.90;;;;;;5018034;28;20237;-73
2022/03/08 07:39:56;;;;;;;39.97;23.17;;;0.60;99.90;;;;;;5002328;28;20273;-74
2022/03/08 07:42:45;;;;;;;37.17;22.80;;;0.60;99.90;;;;;;4998100;28;20318;-74
2022/03/08 07:45:36;;;;;;;38.27;22.10;;;0.60;99.90;;;;;;4997467;28;20330;-74
2022/03/08 07:48:25;;;;;;;34.07;18.67;;;0.80;99.90;;;;;;5018727;28;20667;-73
2022/03/08 07:51:13;;;;;;;31.10;17.07;;;0.70;99.90;;;;;;5003891;28;20225;-74
2022/03/08 07:54:02;;;;;;;32.57;18.63;;;0.50;99.90;;;;;;5012902;28;20225;-74
2022/03/08 07:56:50;;;;;;;41.37;22.10;;;0.50;99.90;;;;;;5018339;28;20229;-73
2022/03/08 07:59:40;;;;;;;40.30;22.60;;;0.50;99.90;;;;;;5007607;28;20235;-75
2022/03/08 08:02:30;;;;;;;44.50;23.23;;;0.50;99.90;;;;;;5014633;28;20678;-75
2022/03/08 08:05:20;;;;;;;40.33;22.47;;;0.60;99.90;;;;;;5004298;28;20225;-73
2022/03/08 08:08:09;;;;;;;47.77;26.43;;;0.70;99.90;;;;;;5018801;28;20217;-75
2022/03/08 08:10:58;;;;;;;44.37;24.33;;;1.00;99.90;;;;;;5003216;28;20233;-73
2022/03/08 08:13:48;;;;;;;53.10;28.70;;;1.10;99.90;;;;;;5002699;28;20304;-74
2022/03/08 08:16:36;;;;;;;41.00;22.90;;;1.00;99.90;;;;;;4999586;28;20243;-74
2022/03/08 08:19:27;;;;;;;42.53;21.43;;;1.20;99.90;;;;;;4995251;28;20244;-73
2022/03/08 08:22:16;;;;;;;34.17;18.97;;;1.30;99.90;;;;;;5013129;28;20292;-74
2022/03/08 08:25:05;;;;;;;41.33;22.47;;;1.40;99.90;;;;;;5017187;28;20283;-73
2022/03/08 08:27:54;;;;;;;29.40;18.43;;;1.50;99.90;;;;;;5003343;28;20447;-75
2022/03/08 08:30:43;;;;;;;29.80;17.83;;;1.60;99.90;;;;;;5001937;28;20380;-74
2022/03/08 08:33:32;;;;;;;27.10;16.40;;;1.60;99.90;;;;;;5014409;28;20223;-75
2022/03/08 08:36:24;;;;;;;24.23;15.97;;;1.70;99.90;;;;;;5024500;28;20321;-74
2022/03/08 08:39:14;;;;;;;25.80;16.77;;;1.30;99.90;;;;;;5002727;28;20222;-73
2022/03/08 08:42:03;;;;;;;23.17;14.83;;;1.60;99.90;;;;;;5025472;28;20250;-74
2022/03/08 08:44:57;;;;;;;26.57;15.07;;;1.70;99.90;;;;;;5005535;28;20248;-73
2022/03/08 08:47:46;;;;;;;21.87;14.87;;;1.60;99.90;;;;;;5000115;28;20233;-74
2022/03/08 08:50:36;;;;;;;22.07;13.97;;;1.70;99.90;;;;;;5000537;28;20241;-74
2022/03/08 08:53:26;;;;;;;22.90;14.70;;;1.90;99.90;;;;;;5037475;28;20263;-74
2022/03/08 08:56:15;;;;;;;21.87;14.27;;;1.90;99.90;;;;;;5036808;28;20232;-73
2022/03/08 08:59:04;;;;;;;19.50;13.30;;;1.70;99.90;;;;;;5024948;28;20228;-75
2022/03/08 09:01:52;;;;;;;20.37;12.37;;;1.80;99.90;;;;;;5037254;28;20225;-74
2022/03/08 09:04:42;;;;;;;22.37;12.13;;;1.80;99.90;;;;;;5034813;28;20804;-76
2022/03/08 09:07:31;;;;;;;22.60;13.67;;;1.70;99.90;;;;;;5037939;28;20221;-72
2022/03/08 09:10:22;;;;;;;20.40;12.10;;;1.80;99.90;;;;;;5038903;28;20265;-73
2022/03/08 09:13:11;;;;;;;17.37;11.43;;;1.80;99.90;;;;;;5021330;28;21116;-74
2022/03/08 09:16:00;;;;;;;17.10;11.80;;;2.00;99.90;;;;;;5019333;28;20222;-73
2022/03/08 09:18:49;;;;;;;18.20;11.27;;;2.10;99.90;;;;;;5025743;28;20296;-67
2022/03/08 09:21:37;;;;;;;15.70;11.43;;;2.30;99.90;;;;;;5032824;28;20759;-69
2022/03/08 09:24:26;;;;;;;18.90;11.47;;;2.70;99.90;;;;;;5020973;28;20375;-69
2022/03/08 09:27:17;;;;;;;21.07;13.50;;;2.80;99.90;;;;;;5021082;28;20216;-68
2022/03/08 09:30:09;;;;;;;24.53;13.30;;;2.90;99.90;;;;;;5032404;28;21821;-67
2022/03/08 09:32:58;;;;;;;23.10;13.53;;;3.30;99.90;;;;;;5019901;28;20224;-68
2022/03/08 09:35:47;;;;;;;20.90;13.93;;;3.20;99.90;;;;;;5032584;28;20304;-70
2022/03/08 09:38:37;;;;;;;19.00;12.97;;;3.40;99.90;;;;;;5020346;28;20225;-69
2022/03/08 09:41:26;;;;;;;28.37;15.97;;;3.50;99.90;;;;;;5018375;28;20259;-69
2022/03/08 09:44:16;;;;;;;38.20;17.47;;;3.30;99.90;;;;;;5022181;28;20604;-69
2022/03/08 09:47:05;;;;;;;64.60;28.67;;;3.40;99.90;;;;;;5034553;28;20225;-71
2022/03/08 09:49:54;;;;;;;28.73;16.30;;;3.20;99.90;;;;;;5031586;28;20233;-70
2022/03/08 09:52:43;;;;;;;21.90;14.93;;;3.30;99.90;;;;;;5000450;28;20225;-70
2022/03/08 09:55:35;;;;;;;29.93;17.63;;;3.20;99.90;;;;;;5017015;28;20309;-68
2022/03/08 09:58:24;;;;;;;20.83;13.33;;;3.30;99.90;;;;;;5000897;28;20773;-69
2022/03/08 10:01:14;;;;;;;18.40;12.63;;;3.00;99.90;;;;;;5006790;28;20332;-70
2022/03/08 10:04:03;;;;;;;20.93;12.80;;;3.10;99.90;;;;;;5013627;28;20871;-75
2022/03/08 10:07:14;;;;;;;20.83;14.07;;;3.20;99.90;;;;;;5014715;28;20220;-74
2022/03/08 10:10:03;;;;;;;20.70;14.37;;;3.10;99.90;;;;;;4999330;28;20226;-74
2022/03/08 10:13:12;;;;;;;21.73;13.97;;;3.30;99.90;;;;;;5002493;28;20221;-74
2022/03/08 10:16:22;;;;;;;16.43;12.57;;;3.40;99.90;;;;;;5019427;28;20264;-75
2022/03/08 10:19:12;;;;;;;21.67;13.33;;;3.50;99.90;;;;;;5011817;28;20238;-75
2022/03/08 10:22:00;;;;;;;21.10;12.23;;;3.50;99.90;;;;;;5001612;28;20234;-73
2022/03/08 10:24:49;;;;;;;19.23;12.43;;;3.70;99.90;;;;;;5012943;28;20332;-74
2022/03/08 10:27:41;;;;;;;20.60;11.77;;;3.50;99.90;;;;;;5017794;28;20313;-75
2022/03/08 10:30:47;;;;;;;14.63;11.13;;;3.80;99.90;;;;;;5004362;28;20235;-74
2022/03/08 10:33:39;;;;;;;14.07;10.80;;;3.80;99.90;;;;;;5014326;28;20221;-74
2022/03/08 10:36:28;;;;;;;13.83;10.43;;;3.80;99.90;;;;;;4999590;28;21584;-73
2022/03/08 10:39:21;;;;;;;19.63;12.03;;;3.90;99.90;;;;;;5016701;28;20223;-73
2022/03/08 10:42:09;;;;;;;17.23;10.83;;;3.80;99.90;;;;;;5003977;28;20234;-72
2022/03/08 10:45:05;;;;;;;15.83;10.50;;;3.70;99.90;;;;;;5005775;28;20357;-73
2022/03/08 10:47:54;;;;;;;22.63;13.93;;;3.90;99.90;;;;;;5002719;28;20224;-72
2022/03/08 10:50:45;;;;;;;23.77;15.90;;;4.00;99.90;;;;;;5007215;28;20226;-71
2022/03/08 10:53:38;;;;;;;15.70;11.07;;;4.10;99.90;;;;;;5034840;28;20218;-72
2022/03/08 10:56:26;;;;;;;16.87;11.27;;;4.10;99.90;;;;;;5041324;28;20316;-73
2022/03/08 10:59:17;;;;;;;16.33;10.17;;;4.30;99.90;;;;;;5035360;28;20212;-74
2022/03/08 11:02:22;;;;;;;13.77;10.70;;;4.60;99.90;;;;;;5039573;28;20247;-73
2022/03/08 11:05:12;;;;;;;12.23;9.37;;;4.70;99.90;;;;;;5039162;28;20296;-74
2022/03/08 11:08:02;;;;;;;14.03;8.03;;;4.50;99.90;;;;;;5038479;28;20231;-74
2022/03/08 11:10:51;;;;;;;10.23;8.17;;;4.20;99.90;;;;;;5038618;28;20338;-73
2022/03/08 11:13:42;;;;;;;11.93;8.63;;;3.90;99.90;;;;;;5037246;28;20239;-73
2022/03/08 11:16:32;;;;;;;10.70;7.97;;;4.00;99.90;;;;;;5038252;28;20225;-74
2022/03/08 11:19:26;;;;;;;18.20;13.77;;;4.30;99.90;;;;;;5041198;28;20223;-72
2022/03/08 11:22:17;;;;;;;24.60;13.77;;;3.90;99.90;;;;;;5049291;28;20375;-74
2022/03/08 11:25:09;;;;;;;15.20;11.10;;;4.30;99.90;;;;;;5037381;28;20224;-73
2022/03/08 11:28:20;;;;;;;15.90;10.03;;;4.40;99.90;;;;;;5035189;28;20809;-74
2022/03/08 11:31:10;;;;;;;14.47;9.30;;;4.30;99.90;;;;;;5039296;28;20248;-74
2022/03/08 11:34:05;;;;;;;15.70;9.93;;;4.60;99.90;;;;;;5038367;28;20521;-75
2022/03/08 11:37:04;;;;;;;8.27;6.07;;;4.20;99.90;;;;;;5037000;28;20220;-73
2022/03/08 11:40:10;;;;;;;6.53;5.27;;;4.10;99.90;;;;;;5038372;28;20277;-74
2022/03/08 11:43:04;;;;;;;7.83;4.80;;;4.00;99.90;;;;;;5036807;28;20223;-72
2022/03/08 11:45:53;;;;;;;7.90;5.03;;;4.00;99.90;;;;;;5046451;28;20226;-72
2022/03/08 11:48:54;;;;;;;7.33;5.77;;;4.10;99.90;;;;;;5036926;28;20650;-71
2022/03/08 11:51:42;;;;;;;14.57;8.57;;;4.40;99.90;;;;;;5036724;28;20232;-73
2022/03/08 11:54:31;;;;;;;10.73;6.63;;;4.60;99.90;;;;;;5002231;28;20227;-71
2022/03/08 11:57:53;;;;;;;8.60;6.53;;;4.70;99.90;;;;;;5016035;28;20833;-69
2022/03/08 12:00:44;;;;;;;10.50;6.97;;;5.00;99.90;;;;;;5005665;28;20704;-72
2022/03/08 12:03:41;;;;;;;8.70;6.37;;;5.00;99.90;;;;;;5001475;28;20236;-73
2022/03/08 12:06:31;;;;;;;8.77;6.80;;;5.30;99.90;;;;;;5003783;28;20229;-72
2022/03/08 12:09:22;;;;;;;6.90;5.87;;;5.20;99.90;;;;;;5012738;28;20224;-73
2022/03/08 12:12:11;;;;;;;10.97;6.53;;;5.40;99.90;;;;;;5010172;28;20923;-72
2022/03/08 12:15:05;;;;;;;13.17;5.13;;;5.30;99.90;;;;;;5003683;28;20311;-71
2022/03/08 12:18:16;;;;;;;7.10;5.10;;;4.90;99.90;;;;;;4999473;28;20288;-69
2022/03/08 12:21:33;;;;;;;7.33;5.20;;;5.00;99.90;;;;;;4986614;28;20229;-72
2022/03/08 12:24:22;;;;;;;8.00;4.67;;;4.90;99.90;;;;;;5018873;28;20307;-73
2022/03/08 12:27:12;;;;;;;8.30;4.87;;;4.70;99.90;;;;;;5015393;28;20765;-71
2022/03/08 12:30:39;;;;;;;9.47;5.00;;;4.80;99.90;;;;;;4989869;28;20305;-70
2022/03/08 12:33:28;;;;;;;6.23;4.20;;;4.80;99.90;;;;;;4996598;28;20227;-69
2022/03/08 12:36:20;;;;;;;8.97;4.03;;;4.70;99.90;;;;;;5019257;28;20221;-68
2022/03/08 12:39:50;;;;;;;7.53;4.20;;;4.70;99.90;;;;;;5000987;28;20228;-72
2022/03/08 12:42:40;;;;;;;9.07;3.90;;;4.80;99.90;;;;;;5000287;28;20221;-71
2022/03/08 12:45:42;;;;;;;4.40;3.53;;;4.90;99.90;;;;;;5004277;28;20221;-71
2022/03/08 12:48:31;;;;;;;4.80;3.57;;;5.10;99.90;;;;;;5003346;28;20263;-72
2022/03/08 12:51:25;;;;;;;6.63;3.70;;;5.20;99.90;;;;;;5019588;28;20594;-72
2022/03/08 12:54:14;;;;;;;8.53;3.53;;;5.10;99.90;;;;;;5019496;28;20220;-69
2022/03/08 12:57:04;;;;;;;4.63;3.23;;;5.10;99.90;;;;;;5021452;28;20232;-70
2022/03/08 12:59:54;;;;;;;5.17;3.17;;;5.10;99.90;;;;;;4999274;28;20244;-69
2022/03/08 13:02:43;;;;;;;6.53;3.63;;;5.10;99.90;;;;;;5016309;28;20220;-68
2022/03/08 13:05:38;;;;;;;4.60;2.90;;;5.20;99.90;;;;;;5011407;28;20752;-70
2022/03/08 13:08:31;;;;;;;4.00;2.73;;;5.40;99.90;;;;;;4997050;28;20390;-67
2022/03/08 13:11:20;;;;;;;6.33;2.63;;;5.50;99.90;;;;;;5013007;28;20256;-68
2022/03/08 13:14:20;;;;;;;6.47;2.73;;;5.60;99.90;;;;;;5000746;28;20630;-68
2022/03/08 13:17:09;;;;;;;9.13;3.10;;;5.50;99.90;;;;;;5000166;28;20794;-69
2022/03/08 13:19:59;;;;;;;6.50;3.10;;;5.40;99.90;;;;;;4998067;28;20228;-69
2022/03/08 13:22:48;;;;;;;5.87;3.03;;;5.50;99.90;;;;;;5009990;28;20229;-70
2022/03/08 13:25:39;;;;;;;5.07;2.73;;;5.40;99.90;;;;;;5010576;28;20217;-68
2022/03/08 13:28:29;;;;;;;7.43;2.80;;;5.40;99.90;;;;;;4992275;28;20233;-69
2022/03/08 13:31:23;;;;;;;6.30;2.90;;;5.40;99.90;;;;;;5010484;28;20303;-69
2022/03/08 13:34:15;;;;;;;7.63;2.60;;;5.50;99.90;;;;;;5012052;28;20228;-77
2022/03/08 13:37:06;;;;;;;4.87;2.50;;;5.60;99.90;;;;;;5017519;28;20369;-77
2022/03/08 13:39:55;;;;;;;8.67;2.90;;;5.70;99.90;;;;;;4997228;28;20234;-76
2022/03/08 13:42:46;;;;;;;7.73;2.33;;;5.80;99.90;;;;;;5008470;28;20253;-76
2022/03/08 13:45:55;;;;;;;3.87;2.30;;;5.80;99.90;;;;;;4998287;28;20228;-72
2022/03/08 13:48:47;;;;;;;3.20;2.33;;;5.80;99.90;;;;;;4966316;28;20620;-72
2022/03/08 13:51:37;;;;;;;5.23;2.50;;;5.60;99.90;;;;;;5003991;28;20334;-71
2022/03/08 13:54:27;;;;;;;6.53;2.40;;;5.70;99.90;;;;;;5017766;28;20228;-70
2022/03/08 13:57:16;;;;;;;9.67;2.93;;;5.90;99.90;;;;;;5031372;28;20213;-71
2022/03/08 14:00:07;;;;;;;4.33;2.10;;;5.90;99.90;;;;;;5034172;28;20674;-73
2022/03/08 14:02:59;;;;;;;6.33;2.50;;;6.00;99.90;;;;;;5035973;28;20228;-71
2022/03/08 14:05:54;;;;;;;7.17;2.80;;;6.00;99.90;;;;;;5023342;28;20276;-73
2022/03/08 14:08:45;;;;;;;5.93;2.80;;;6.10;99.90;;;;;;5034639;28;20686;-71
2022/03/08 14:11:35;;;;;;;2.87;2.00;;;6.10;99.90;;;;;;5038357;28;20224;-71
2022/03/08 14:14:26;;;;;;;4.40;2.60;;;5.90;99.90;;;;;;5040399;28;20232;-71
2022/03/08 14:17:14;;;;;;;5.33;2.40;;;6.00;99.90;;;;;;5032683;28;20954;-71
2022/03/08 14:20:14;;;;;;;4.60;2.13;;;5.90;99.90;;;;;;5041515;28;20741;-70
2022/03/08 14:23:07;;;;;;;5.03;2.23;;;5.90;99.90;;;;;;5036692;28;20304;-73
2022/03/08 14:25:58;;;;;;;5.10;2.10;;;5.90;99.90;;;;;;5021513;28;20319;-72
2022/03/08 14:28:54;;;;;;;6.47;1.90;;;5.90;99.90;;;;;;5036822;28;20311;-72
2022/03/08 14:31:49;;;;;;;4.00;1.70;;;5.90;99.90;;;;;;5034447;28;20271;-71
2022/03/08 14:34:40;;;;;;;3.87;1.60;;;6.00;99.90;;;;;;5025610;28;20310;-72
2022/03/08 14:37:29;;;;;;;3.77;2.17;;;6.10;99.90;;;;;;5035833;28;20217;-72
2022/03/08 14:40:40;;;;;;;5.60;1.93;;;6.00;99.90;;;;;;5030450;28;20225;-72
2022/03/08 14:43:29;;;;;;;5.80;1.97;;;6.10;99.90;;;;;;5035169;28;20224;-70
2022/03/08 14:46:19;;;;;;;2.77;1.80;;;6.10;99.90;;;;;;4959949;28;20232;-72
2022/03/08 14:49:07;;;;;;;6.30;2.13;;;6.10;99.90;;;;;;5036552;28;21041;-73